Time;durP1;ratioP1;P1;durP2;ratioP2;P2;SDS_P1;SDS_P2;PMS_P1;PMS_P2;Temp;Humidity;BMP_temperature;BMP_pressure;BME280_temperature;BME280_humidity;BME280_pressure;Samples;Min_cycle;Max_cycle;Signal;HPM_P1;HPM_P2
2023/03/05 00:07:13;;;;;;;0.20;0.08;;;7.90;99.90;;;;;;20978871;28;20796;-68
2023/03/05 00:17:17;;;;;;;0.20;0.10;;;7.70;99.90;;;;;;20985968;28;20406;-69
2023/03/05 00:27:22;;;;;;;0.20;0.10;;;7.60;99.90;;;;;;20985224;28;20508;-68
2023/03/05 00:37:26;;;;;;;0.20;0.10;;;7.50;99.90;;;;;;20985216;28;20394;-67
2023/03/05 00:47:31;;;;;;;0.20;0.10;;;7.30;99.90;;;;;;20984540;28;20436;-67
2023/03/05 00:57:35;;;;;;;0.20;0.10;;;7.20;99.90;;;;;;20976618;28;20554;-68
2023/03/05 01:07:40;;;;;;;0.20;0.10;;;7.20;99.90;;;;;;20981649;28;20424;-67
2023/03/05 01:17:44;;;;;;;0.20;0.10;;;7.10;99.90;;;;;;20988407;28;20398;-67
2023/03/05 01:27:49;;;;;;;0.20;0.10;;;7.20;99.90;;;;;;21043852;28;20408;-67
2023/03/05 01:37:53;;;;;;;0.20;0.00;;;7.30;99.90;;;;;;21063523;28;20461;-68
2023/03/05 01:47:58;;;;;;;0.20;0.10;;;7.10;99.90;;;;;;21044222;28;20444;-67
2023/03/05 01:58:06;;;;;;;0.20;0.10;;;6.90;99.90;;;;;;21044365;28;20400;-68
2023/03/05 02:08:13;;;;;;;0.20;0.10;;;6.90;99.90;;;;;;21044310;28;20408;-68
2023/03/05 02:18:18;;;;;;;0.20;0.10;;;6.90;99.90;;;;;;21063660;28;20528;-68
2023/03/05 02:28:30;;;;;;;0.20;0.10;;;7.00;99.90;;;;;;21063324;28;20780;-68
2023/03/05 02:38:34;;;;;;;0.20;0.10;;;6.90;99.90;;;;;;21062585;28;20480;-68
2023/03/05 02:48:39;;;;;;;0.20;0.10;;;7.20;99.90;;;;;;21061061;28;20446;-67
2023/03/05 02:58:43;;;;;;;0.20;0.10;;;7.10;99.90;;;;;;21061295;28;20457;-67
2023/03/05 03:08:48;;;;;;;0.20;0.10;;;7.10;99.90;;;;;;21042895;28;20429;-67
2023/03/05 03:18:52;;;;;;;0.20;0.10;;;7.00;99.90;;;;;;21043064;28;20993;-68
2023/03/05 03:28:58;;;;;;;0.20;0.00;;;7.00;99.90;;;;;;20944627;28;20415;-68
2023/03/05 03:39:02;;;;;;;0.20;0.00;;;6.90;99.90;;;;;;20877718;28;20415;-68
2023/03/05 03:49:08;;;;;;;0.20;0.10;;;7.00;99.90;;;;;;20926772;28;20956;-67
2023/03/05 03:59:13;;;;;;;0.20;0.10;;;6.80;99.90;;;;;;20990870;28;20401;-68
2023/03/05 04:09:18;;;;;;;0.20;0.10;;;6.90;99.90;;;;;;20990345;28;20812;-68
2023/03/05 04:19:22;;;;;;;0.20;0.00;;;6.70;99.90;;;;;;20971669;28;20478;-67
2023/03/05 04:29:27;;;;;;;0.20;0.00;;;6.70;99.90;;;;;;20970442;28;20406;-67
2023/03/05 04:39:31;;;;;;;0.20;0.03;;;6.60;99.90;;;;;;20987824;28;20485;-67
2023/03/05 04:49:36;;;;;;;0.20;0.10;;;6.50;99.90;;;;;;20980754;28;20406;-67
2023/03/05 04:59:40;;;;;;;0.20;0.00;;;6.10;99.90;;;;;;20980639;28;20453;-68
2023/03/05 05:09:45;;;;;;;0.20;0.10;;;6.00;99.90;;;;;;20967475;28;20418;-67
2023/03/05 05:19:49;;;;;;;0.20;0.10;;;6.10;99.90;;;;;;20967087;28;20831;-67
2023/03/05 05:29:55;;;;;;;0.20;0.10;;;5.90;99.90;;;;;;20965671;28;20530;-67
2023/03/05 05:39:59;;;;;;;0.20;0.10;;;6.10;99.90;;;;;;20965154;28;20944;-68
2023/03/05 05:50:04;;;;;;;0.20;0.10;;;6.00;99.90;;;;;;20964056;28;20470;-68
2023/03/05 06:00:11;;;;;;;0.20;0.10;;;6.00;99.90;;;;;;20981221;28;20442;-70
2023/03/05 06:10:18;;;;;;;0.20;0.10;;;6.10;99.90;;;;;;20962652;28;20505;-68
2023/03/05 06:20:22;;;;;;;0.20;0.10;;;6.00;99.90;;;;;;20961472;28;20512;-69
2023/03/05 06:30:27;;;;;;;0.20;0.10;;;6.00;99.90;;;;;;20944381;28;20759;-68
2023/03/05 06:40:31;;;;;;;0.20;0.10;;;6.00;99.90;;;;;;20944087;28;20407;-68
2023/03/05 06:50:37;;;;;;;0.20;0.10;;;5.80;99.90;;;;;;20943006;28;20410;-68
2023/03/05 07:00:41;;;;;;;0.20;0.10;;;6.00;99.90;;;;;;20960425;28;20408;-67
2023/03/05 07:10:46;;;;;;;0.20;0.10;;;6.30;99.90;;;;;;20977599;28;20402;-67
2023/03/05 07:20:50;;;;;;;0.20;0.10;;;6.80;99.90;;;;;;20990966;28;20456;-67
2023/03/05 07:31:00;;;;;;;0.20;0.10;;;7.20;99.90;;;;;;20959068;28;20754;-67
2023/03/05 07:41:05;;;;;;;0.20;0.10;;;7.80;99.90;;;;;;20992877;28;20742;-66
2023/03/05 07:51:14;;;;;;;0.20;0.10;;;8.30;99.90;;;;;;20973135;28;20501;-68
2023/03/05 08:01:18;;;;;;;0.20;0.10;;;8.60;99.90;;;;;;20990796;28;20764;-66
2023/03/05 08:11:24;;;;;;;0.20;0.00;;;9.10;99.90;;;;;;20972045;28;20417;-68
2023/03/05 08:21:29;;;;;;;0.20;0.10;;;9.50;99.90;;;;;;20971399;28;20421;-68
2023/03/05 08:31:35;;;;;;;1.10;1.10;;;10.00;99.90;;;;;;20971023;28;20429;-66
2023/03/05 08:41:39;;;;;;;0.20;0.10;;;10.50;99.90;;;;;;20970010;28;20424;-68
2023/03/05 08:51:44;;;;;;;0.20;0.10;;;10.90;99.90;;;;;;20969215;28;20464;-68
2023/03/05 09:01:48;;;;;;;0.20;0.10;;;11.50;99.90;;;;;;20986935;28;20548;-69
2023/03/05 09:11:54;;;;;;;0.20;0.10;;;11.20;99.90;;;;;;20985697;28;20544;-69
2023/03/05 09:21:57;;;;;;;0.20;0.10;;;11.50;99.90;;;;;;20967420;28;20931;-68
2023/03/05 09:32:03;;;;;;;0.20;0.10;;;12.30;99.90;;;;;;20964206;28;20881;-69
2023/03/05 09:42:29;;;;;;;0.20;0.10;;;12.40;99.90;;;;;;20962424;28;20463;-63
2023/03/05 09:52:43;;;;;;;0.20;0.00;;;12.40;99.90;;;;;;20945864;28;20765;-68
2023/03/05 10:02:54;;;;;;;0.20;0.00;;;12.70;99.90;;;;;;20978832;28;20418;-67
2023/03/05 10:13:03;;;;;;;0.20;0.10;;;13.00;99.90;;;;;;20977682;28;20402;-66
2023/03/05 10:23:23;;;;;;;0.20;0.10;;;13.50;99.90;;;;;;20977580;28;20410;-66
2023/03/05 10:33:39;;;;;;;0.20;0.10;;;14.30;99.90;;;;;;20975798;28;20404;-68
2023/03/05 10:43:52;;;;;;;0.20;0.00;;;14.90;99.90;;;;;;20974758;28;20406;-68
2023/03/05 10:53:59;;;;;;;0.20;0.00;;;14.90;99.90;;;;;;20974591;28;20413;-69
2023/03/05 11:04:05;;;;;;;0.20;0.10;;;14.50;99.90;;;;;;20956198;28;20493;-67
2023/03/05 11:14:29;;;;;;;0.20;0.10;;;14.90;99.90;;;;;;20973344;28;20410;-72
2023/03/05 11:24:33;;;;;;;0.20;0.10;;;15.40;99.90;;;;;;20973452;28;20450;-69
2023/03/05 11:34:39;;;;;;;0.20;0.10;;;15.80;99.90;;;;;;20973549;28;20402;-67
2023/03/05 11:44:48;;;;;;;0.20;0.10;;;16.30;99.90;;;;;;20947482;28;20410;-66
2023/03/05 11:54:59;;;;;;;0.20;0.00;;;16.00;99.90;;;;;;20969210;28;20412;-67
2023/03/05 12:05:05;;;;;;;0.20;0.10;;;16.40;99.90;;;;;;20994213;28;20461;-71
2023/03/05 12:15:29;;;;;;;0.20;0.07;;;16.70;99.90;;;;;;21005974;28;20785;-70
2023/03/05 12:25:34;;;;;;;0.20;0.10;;;17.30;99.90;;;;;;20986494;28;20452;-69
2023/03/05 12:35:40;;;;;;;0.20;0.10;;;17.80;99.90;;;;;;20984447;28;20402;-71
2023/03/05 12:45:44;;;;;;;0.20;0.10;;;17.70;99.90;;;;;;20964959;28;20471;-69
2023/03/05 12:55:58;;;;;;;0.20;0.10;;;17.20;99.90;;;;;;20964285;28;20460;-69
2023/03/05 13:06:04;;;;;;;0.20;0.10;;;18.00;99.90;;;;;;20980662;28;20420;-69
2023/03/05 13:16:17;;;;;;;0.20;0.10;;;18.10;99.90;;;;;;20980192;28;20436;-69
2023/03/05 13:26:21;;;;;;;0.20;0.10;;;18.40;99.90;;;;;;20964263;28;20414;-68
2023/03/05 13:36:27;;;;;;;0.20;0.10;;;18.50;99.90;;;;;;20981998;28;20893;-67
2023/03/05 13:46:33;;;;;;;0.20;0.00;;;18.30;99.90;;;;;;20981094;28;20414;-70
2023/03/05 13:56:49;;;;;;;0.20;0.10;;;18.60;99.90;;;;;;20980502;28;20402;-71
2023/03/05 14:06:57;;;;;;;0.20;0.10;;;18.80;99.90;;;;;;20942789;28;20421;-70
2023/03/05 14:17:30;;;;;;;0.20;0.10;;;19.00;99.90;;;;;;20961204;28;20793;-69
2023/03/05 14:27:36;;;;;;;0.20;0.10;;;18.70;99.90;;;;;;20978501;28;20403;-70
2023/03/05 14:37:43;;;;;;;0.20;0.05;;;19.30;99.90;;;;;;20943900;28;20394;-68
2023/03/05 14:47:49;;;;;;;0.20;0.00;;;18.80;99.90;;;;;;20977211;28;20424;-70
2023/03/05 14:58:03;;;;;;;0.20;0.10;;;19.40;99.90;;;;;;20958904;28;20394;-68
2023/03/05 15:08:12;;;;;;;0.20;0.10;;;19.30;99.90;;;;;;20942346;28;20411;-69
2023/03/05 15:18:21;;;;;;;0.20;0.10;;;19.30;99.90;;;;;;20958062;28;20845;-69
2023/03/05 15:28:25;;;;;;;0.20;0.10;;;19.20;99.90;;;;;;20953936;28;20500;-69
2023/03/05 15:38:30;;;;;;;0.20;0.00;;;18.30;99.90;;;;;;20962904;28;20529;-68
2023/03/05 15:48:33;;;;;;;0.20;0.00;;;17.80;99.90;;;;;;21027376;28;20400;-69
2023/03/05 15:58:39;;;;;;;0.20;0.10;;;17.90;99.90;;;;;;21069005;28;20400;-67
2023/03/05 16:08:44;;;;;;;0.20;0.10;;;17.80;99.90;;;;;;21068652;28;20442;-67
2023/03/05 16:18:49;;;;;;;0.20;0.00;;;18.30;99.90;;;;;;21033681;28;20770;-69
2023/03/05 16:28:53;;;;;;;0.20;0.10;;;17.10;99.90;;;;;;20993881;28;20897;-69
2023/03/05 16:38:59;;;;;;;0.20;0.00;;;15.90;99.90;;;;;;20964900;28;20399;-69
2023/03/05 16:49:03;;;;;;;0.20;0.10;;;15.40;99.90;;;;;;20982140;28;20406;-67
2023/03/05 16:59:09;;;;;;;0.20;0.00;;;15.60;99.90;;;;;;20946818;28;20471;-68
2023/03/05 17:09:12;;;;;;;0.20;0.00;;;14.60;99.90;;;;;;20963026;28;20418;-69
2023/03/05 17:19:18;;;;;;;0.20;0.00;;;14.00;99.90;;;;;;20961953;28;20881;-68
2023/03/05 17:29:22;;;;;;;0.20;0.10;;;13.70;99.90;;;;;;20959540;28;20406;-69
2023/03/05 17:39:27;;;;;;;0.20;0.00;;;13.40;99.90;;;;;;20941699;28;20904;-70
2023/03/05 17:49:31;;;;;;;0.20;0.05;;;13.20;99.90;;;;;;21031739;28;20440;-69
2023/03/05 17:59:37;;;;;;;0.20;0.00;;;13.00;99.90;;;;;;21024254;28;20396;-68
2023/03/05 18:09:42;;;;;;;0.20;0.10;;;12.90;99.90;;;;;;20946916;28;20472;-68
2023/03/05 18:19:47;;;;;;;0.20;0.10;;;13.10;99.90;;;;;;20956891;28;20444;-67
2023/03/05 18:29:52;;;;;;;0.20;0.10;;;13.00;99.90;;;;;;20974961;28;20409;-67
2023/03/05 18:39:58;;;;;;;0.20;0.10;;;12.70;99.90;;;;;;20973633;28;20417;-75
2023/03/05 18:50:02;;;;;;;0.20;0.10;;;12.30;99.90;;;;;;20954706;28;20409;-68
2023/03/05 19:00:09;;;;;;;0.20;0.10;;;11.40;99.90;;;;;;20954962;28;20456;-68
2023/03/05 19:10:14;;;;;;;0.20;0.10;;;11.10;99.90;;;;;;20970894;28;20428;-69
2023/03/05 19:20:20;;;;;;;0.20;0.10;;;10.20;99.90;;;;;;20981716;28;20399;-69
2023/03/05 19:30:24;;;;;;;0.20;0.10;;;10.00;99.90;;;;;;20938394;28;20421;-68
2023/03/05 19:40:29;;;;;;;0.20;0.00;;;10.30;99.90;;;;;;20970034;28;20532;-68
2023/03/05 19:50:33;;;;;;;0.20;0.10;;;10.10;99.90;;;;;;20932926;28;20419;-71
2023/03/05 20:00:38;;;;;;;0.20;0.10;;;9.90;99.90;;;;;;20869147;28;20879;-68
2023/03/05 20:10:42;;;;;;;0.20;0.10;;;9.80;99.90;;;;;;20886793;28;20420;-68
2023/03/05 20:20:51;;;;;;;0.20;0.10;;;9.40;99.90;;;;;;20986426;28;20409;-69
2023/03/05 20:30:57;;;;;;;0.20;0.10;;;9.50;99.90;;;;;;21067606;28;20415;-69
2023/03/05 20:41:04;;;;;;;0.20;0.10;;;9.20;99.90;;;;;;21048790;28;20466;-69
2023/03/05 20:51:12;;;;;;;0.20;0.10;;;9.00;99.90;;;;;;21047913;28;20412;-69
2023/03/05 21:01:18;;;;;;;0.20;0.10;;;8.90;99.90;;;;;;21047800;28;20399;-69
2023/03/05 21:11:22;;;;;;;0.20;0.10;;;8.70;99.90;;;;;;21029447;28;20408;-69
2023/03/05 21:21:30;;;;;;;0.20;0.10;;;8.60;99.90;;;;;;21029513;28;20406;-69
2023/03/05 21:31:36;;;;;;;0.20;0.10;;;8.40;99.90;;;;;;21044657;28;20416;-70
2023/03/05 21:41:45;;;;;;;0.20;0.10;;;8.40;99.90;;;;;;21044262;28;20457;-69
2023/03/05 21:52:02;;;;;;;0.20;0.10;;;8.50;99.90;;;;;;21012343;28;20410;-70
2023/03/05 22:02:09;;;;;;;0.20;0.00;;;8.30;99.90;;;;;;20959016;28;20406;-70
2023/03/05 22:12:19;;;;;;;0.20;0.10;;;8.70;99.90;;;;;;20975669;28;20414;-69
2023/03/05 22:22:24;;;;;;;0.20;0.00;;;8.00;99.90;;;;;;20969288;28;20888;-69
2023/03/05 22:32:28;;;;;;;0.20;0.10;;;8.40;99.90;;;;;;20972122;28;20417;-67
2023/03/05 22:42:33;;;;;;;0.20;0.00;;;8.20;99.90;;;;;;20950663;28;20408;-68
2023/03/05 22:52:37;;;;;;;0.20;0.10;;;8.10;99.90;;;;;;20955816;28;20417;-69
2023/03/05 23:02:43;;;;;;;0.20;0.10;;;8.30;99.90;;;;;;20955668;28;20494;-68
2023/03/05 23:12:49;;;;;;;0.20;0.10;;;8.40;99.90;;;;;;20938672;28;20931;-69
2023/03/05 23:22:55;;;;;;;0.20;0.10;;;8.00;99.90;;;;;;20955211;28;20451;-69
2023/03/05 23:33:02;;;;;;;0.20;0.10;;;7.80;99.90;;;;;;20954299;28;20414;-68
2023/03/05 23:43:08;;;;;;;0.20;0.07;;;7.90;99.90;;;;;;20955307;28;20485;-70
2023/03/05 23:53:16;;;;;;;0.20;0.10;;;8.10;99.90;;;;;;20971654;28;20414;-70
